Poplar Branch, North Carolina
Current Conditions -  °F | °C
As of 5:35 PM on Sunday 21 Dec 2014 (Local Time) from KONX Reporting Station
Clear Clear  
Wind Chill: 40°   Ceiling: Unl
Heat Index: 40°   Visibility: 10mi
Dew Point: 32°   Wind: 3mph
Humidity: 72%   Direction: 20°NNE
Pressure: 30.3"   Gusts: NA
Location:  36.28°N, 75.89°W
Report Text: KONX 212235Z AUTO 02003KT 10SM CLR 05/00 A3030 RMK AO2 T00460000
Loading
Personal Weather Stations






























Interactive Weather Map New forecast layout! Learn more

10-Day Weather Forecast

Advertisements
Track Severe Weather on mobile